aviador You're here:

LEVC Decoded Metar

VALENCIA in SPAIN
Report Time2017-06-28 06:30:00
UTC Time2017-06-28 07:03:42
Flight Rules vfr VFR
Wind250° at 09 kt
W.Decomp.*RWY 30: 5.9 kt HW 6.8 kt LCW
W.Rank250° ranks 3
Current wind is above 250° avg. (8.7)
Visibility9999 m
Phenomena:N/A
Clouds:Few 030 Hf
Expected CloudBase > 6,800 ft AGL from Temp-Dew spread
CeilingNone
Temp26°C (ISA +11)
Dew Point09°C (34% RH)
AAT22.5°C
QNH1008 hPa
Density Alt1,847 ft
Elevation203 ft
Report Wrong Elevation
Raw Report
LEVC 280630Z 25009KT 220V290 9999 FEW030 26/09 Q1008 NOSIG=

Extra information for LEVC:More info

Metar Taf Metar & Taf Last 4 Metars F.Rules Stats Wind Profile Meteogram Temp Stats Airport Information Weather charts Add Link Nearby VenuesMetar ALERT Operation Metar Decoded Social comments

Webcam Valencia